createdAt,value
2023-04-18T00:01:44.642Z,97901.94
2023-04-18T00:04:12.067Z,97899.22
2023-04-18T00:06:39.010Z,97915.16
2023-04-18T00:09:05.890Z,97894.53
2023-04-18T00:11:32.606Z,97905.06
2023-04-18T00:13:59.609Z,97900.75
2023-04-18T00:16:28.330Z,97917.50
2023-04-18T00:18:55.533Z,97919.06
2023-04-18T00:21:22.756Z,97908.94
2023-04-18T00:23:49.441Z,97904.25
2023-04-18T00:26:15.985Z,97907.38
2023-04-18T00:28:42.597Z,97904.66
2023-04-18T00:31:09.270Z,97895.69
2023-04-18T00:33:35.836Z,97902.72
2023-04-18T00:36:02.452Z,97905.03
2023-04-18T00:38:28.962Z,97896.84
2023-04-18T00:40:55.571Z,97894.53
2023-04-18T00:43:25.367Z,97894.53
2023-04-18T00:45:52.570Z,97899.19
2023-04-18T00:48:19.201Z,97898.81
2023-04-18T00:50:45.783Z,97899.56
2023-04-18T00:53:13.405Z,97901.88
2023-04-18T00:55:41.204Z,97892.13
2023-04-18T00:58:08.239Z,97902.66
2023-04-18T01:00:34.890Z,97898.75
2023-04-18T01:03:01.650Z,97898.34
2023-04-18T01:05:28.385Z,97898.69
2023-04-18T01:08:01.036Z,97897.91
2023-04-18T01:10:29.105Z,97895.97
2023-04-18T01:13:16.082Z,97894.41
2023-04-18T01:15:44.098Z,97889.78
2023-04-18T01:18:11.969Z,97894.03
2023-04-18T01:20:41.555Z,97886.63
2023-04-18T01:23:10.552Z,97882.31
2023-04-18T01:25:37.511Z,97880.00
2023-04-18T01:28:04.690Z,97887.78
2023-04-18T01:30:31.211Z,97884.66
2023-04-18T01:32:57.795Z,97892.78
2023-04-18T01:35:24.328Z,97886.97
2023-04-18T01:37:50.883Z,97890.47
2023-04-18T01:40:17.467Z,97895.91
2023-04-18T01:42:44.095Z,97893.19
2023-04-18T01:45:12.858Z,97893.97
2023-04-18T01:47:39.724Z,97888.13
2023-04-18T01:50:07.023Z,97896.25
2023-04-18T01:52:33.812Z,97886.91
2023-04-18T01:55:02.328Z,97890.84
2023-04-18T01:57:29.102Z,97887.34
2023-04-18T01:59:55.658Z,97885.78
2023-04-18T02:02:22.318Z,97886.13
2023-04-18T02:04:48.951Z,97879.50
2023-04-18T02:07:15.532Z,97889.22
2023-04-18T02:09:42.084Z,97883.00
2023-04-18T02:12:08.745Z,97885.72
2023-04-18T02:14:36.406Z,97882.22
2023-04-18T02:17:03.003Z,97883.72
2023-04-18T02:19:30.493Z,97878.31
2023-04-18T02:21:57.071Z,97880.59
2023-04-18T02:24:23.716Z,97873.19
2023-04-18T02:26:50.415Z,97882.50
2023-04-18T02:29:17.168Z,97885.16
2023-04-18T02:31:43.684Z,97882.06
2023-04-18T02:34:10.437Z,97889.81
2023-04-18T02:36:37.007Z,97885.09
2023-04-18T02:39:05.939Z,97892.84
2023-04-18T02:41:32.523Z,97888.94
2023-04-18T02:43:59.168Z,97888.59
2023-04-18T02:46:25.875Z,97885.31
2023-04-18T02:48:52.496Z,97894.25
2023-04-18T02:51:20.141Z,97896.97
2023-04-18T02:53:46.906Z,97887.97
2023-04-18T02:56:17.187Z,97883.28
2023-04-18T02:58:43.763Z,97881.19
2023-04-18T03:01:10.333Z,97873.13
2023-04-18T03:03:36.907Z,97881.56
2023-04-18T03:06:03.585Z,97884.69
2023-04-18T03:08:30.326Z,97895.06
2023-04-18T03:10:56.906Z,97889.25
2023-04-18T03:13:23.402Z,97886.13
2023-04-18T03:15:50.017Z,97892.69
2023-04-18T03:18:16.743Z,97894.63
2023-04-18T03:20:43.483Z,97889.19
2023-04-18T03:23:10.355Z,97890.75
2023-04-18T03:25:37.321Z,97883.63
2023-04-18T03:28:06.622Z,97887.53
2023-04-18T03:30:33.183Z,97880.56
2023-04-18T03:33:03.005Z,97888.31
2023-04-18T03:35:29.653Z,97895.28
2023-04-18T03:37:56.234Z,97894.50
2023-04-18T03:40:22.824Z,97889.78
2023-04-18T03:42:49.328Z,97875.59
2023-04-18T03:45:16.792Z,97893.53
2023-04-18T03:47:43.313Z,97880.31
2023-04-18T03:50:10.236Z,97889.56
2023-04-18T03:52:36.867Z,97881.03
2023-04-18T03:55:03.678Z,97884.50
2023-04-18T03:57:30.494Z,97886.44
2023-04-18T03:59:57.065Z,97883.38
2023-04-18T04:02:23.809Z,97889.44
2023-04-18T04:04:50.443Z,97882.47
2023-04-18T04:07:17.053Z,97895.66
2023-04-18T04:09:43.606Z,97893.28
2023-04-18T04:12:10.119Z,97898.31
2023-04-18T04:14:36.621Z,97884.75
2023-04-18T04:17:03.234Z,97891.28
2023-04-18T04:19:29.728Z,97891.28
2023-04-18T04:21:56.308Z,97892.41
2023-04-18T04:24:22.842Z,97893.88
2023-04-18T04:26:50.853Z,97885.31
2023-04-18T04:29:17.831Z,97897.63
2023-04-18T04:31:44.657Z,97892.72
2023-04-18T04:34:11.435Z,97902.38
2023-04-18T04:36:38.086Z,97898.47
2023-04-18T04:39:05.413Z,97902.00
2023-04-18T04:41:31.938Z,97916.31
2023-04-18T04:43:59.697Z,97913.31
2023-04-18T04:46:29.568Z,97914.09
2023-04-18T04:48:56.659Z,97904.06
2023-04-18T04:51:23.548Z,97907.28
2023-04-18T04:53:50.156Z,97909.66
2023-04-18T04:56:16.735Z,97914.00
2023-04-18T04:58:43.310Z,97919.97
2023-04-18T05:01:09.861Z,97921.97
2023-04-18T05:03:38.283Z,97932.56
2023-04-18T05:06:05.410Z,97926.44
2023-04-18T05:08:31.973Z,97933.97
2023-04-18T05:10:58.523Z,97931.69
2023-04-18T05:13:25.155Z,97940.69
2023-04-18T05:15:52.696Z,97935.72
2023-04-18T05:18:19.298Z,97935.81
2023-04-18T05:20:45.838Z,97940.16
2023-04-18T05:23:12.514Z,97937.16
2023-04-18T05:25:39.530Z,97940.28
2023-04-18T05:28:06.127Z,97930.69
2023-04-18T05:30:32.734Z,97938.13
2023-04-18T05:32:59.316Z,97938.91
2023-04-18T05:35:26.325Z,97941.69
2023-04-18T05:37:52.868Z,97934.31
2023-04-18T05:40:19.470Z,97930.44
2023-04-18T05:42:46.012Z,97934.41
2023-04-18T05:45:12.581Z,97941.41
2023-04-18T05:47:41.717Z,97936.78
2023-04-18T05:50:08.995Z,97942.28
2023-04-18T05:52:37.431Z,97937.59
2023-04-18T05:55:04.313Z,97939.22
2023-04-18T05:57:31.260Z,97938.09
2023-04-18T05:59:57.850Z,97934.59
2023-04-18T06:02:24.570Z,97935.38
2023-04-18T06:04:51.663Z,97943.16
2023-04-18T06:07:18.417Z,97937.78
2023-04-18T06:09:45.027Z,97941.25
2023-04-18T06:12:11.562Z,97937.75
2023-04-18T06:14:38.251Z,97946.34
2023-04-18T06:17:07.393Z,97947.50
2023-04-18T06:19:33.947Z,97945.56
2023-04-18T06:22:01.843Z,97948.69
2023-04-18T06:24:30.141Z,97949.47
2023-04-18T06:26:58.215Z,97947.91
2023-04-18T06:29:27.330Z,97945.56
2023-04-18T06:31:53.949Z,97950.63
2023-04-18T06:34:20.559Z,97943.59
2023-04-18T06:36:47.219Z,97947.91
2023-04-18T06:39:13.740Z,97948.66
2023-04-18T06:41:40.357Z,97951.78
2023-04-18T06:44:06.913Z,97948.63
2023-04-18T06:46:33.610Z,97944.66
2023-04-18T06:49:00.548Z,97942.31
2023-04-18T06:51:27.625Z,97947.69
2023-04-18T06:53:54.338Z,97948.31
2023-04-18T06:56:21.537Z,97942.72
2023-04-18T06:58:48.684Z,97939.25
2023-04-18T07:01:15.292Z,97940.53
2023-04-18T07:03:42.124Z,97945.91
2023-04-18T07:06:10.624Z,97950.28
2023-04-18T07:08:37.655Z,97948.72
2023-04-18T07:11:04.291Z,97945.53
2023-04-18T07:13:30.861Z,97958.88
2023-04-18T07:15:57.625Z,97948.84
2023-04-18T07:18:36.674Z,97944.03
2023-04-18T07:21:07.891Z,97947.03
2023-04-18T07:23:35.160Z,97945.16
2023-04-18T07:26:03.007Z,97958.59
2023-04-18T07:28:31.314Z,97957.16
2023-04-18T07:30:58.671Z,97949.97
2023-04-18T07:33:25.655Z,97953.28
2023-04-18T07:35:53.276Z,97950.34
2023-04-18T07:38:20.160Z,97957.03
2023-04-18T07:40:46.687Z,97961.31
2023-04-18T07:43:13.304Z,97952.03
2023-04-18T07:45:39.917Z,97947.84
2023-04-18T07:48:06.660Z,97952.03
2023-04-18T07:50:33.246Z,97957.94
2023-04-18T07:52:59.779Z,97950.88
2023-04-18T07:55:26.385Z,97953.28
2023-04-18T07:57:52.930Z,97949.91
2023-04-18T08:00:19.761Z,97946.06
2023-04-18T08:02:46.591Z,97950.56
2023-04-18T08:05:13.441Z,97955.63
2023-04-18T08:07:40.134Z,97955.66
2023-04-18T08:10:07.179Z,97949.47
2023-04-18T08:12:33.755Z,97953.84
2023-04-18T08:15:00.295Z,97961.28
2023-04-18T08:17:26.865Z,97956.88
2023-04-18T08:19:53.428Z,97960.88
2023-04-18T08:22:20.012Z,97956.09
2023-04-18T08:25:00.952Z,97952.53
2023-04-18T08:27:31.503Z,97959.53
2023-04-18T08:29:58.342Z,97964.38
2023-04-18T08:32:25.082Z,97956.66
2023-04-18T08:34:51.707Z,97953.91
2023-04-18T08:37:18.420Z,97967.13
2023-04-18T08:39:45.186Z,97961.47
2023-04-18T08:42:16.444Z,97958.41
2023-04-18T08:44:43.352Z,97960.50
2023-04-18T08:47:10.089Z,97961.72
2023-04-18T08:49:36.665Z,97964.84
2023-04-18T08:52:13.550Z,97961.66
2023-04-18T08:54:45.365Z,97969.91
2023-04-18T08:57:16.634Z,97979.03
2023-04-18T08:59:46.772Z,97975.16
2023-04-18T09:02:15.762Z,97990.16
2023-04-18T09:04:45.338Z,97986.47
2023-04-18T09:07:15.959Z,97984.63
2023-04-18T09:09:46.095Z,97980.69
2023-04-18T09:12:14.897Z,97989.22
2023-04-18T09:14:51.779Z,97980.41
2023-04-18T09:17:38.614Z,97983.56
2023-04-18T09:20:06.397Z,97991.94
2023-04-18T09:22:48.531Z,97980.72
2023-04-18T09:25:40.118Z,97988.50
2023-04-18T09:28:28.577Z,97985.25
2023-04-18T09:30:56.863Z,97975.75
2023-04-18T09:33:34.125Z,97978.47
2023-04-18T09:36:18.170Z,97981.31
2023-04-18T09:38:44.805Z,97991.28
2023-04-18T09:41:12.362Z,97988.72
2023-04-18T09:43:39.407Z,97981.81
2023-04-18T09:46:07.403Z,97981.84
2023-04-18T09:48:34.292Z,97983.59
2023-04-18T09:51:07.495Z,97985.66
2023-04-18T09:53:41.832Z,97981.84
2023-04-18T09:56:29.733Z,97983.44
2023-04-18T09:59:07.270Z,97988.69
2023-04-18T10:01:34.782Z,97984.56
2023-04-18T10:04:04.328Z,97980.44
2023-04-18T10:06:39.819Z,97983.47
2023-04-18T10:09:09.096Z,97985.78
2023-04-18T10:11:36.537Z,97980.47
2023-04-18T10:14:07.892Z,97979.94
2023-04-18T10:16:36.321Z,97973.16
2023-04-18T10:19:22.967Z,97981.25
2023-04-18T10:22:00.448Z,97982.22
2023-04-18T10:24:56.768Z,97982.28
2023-04-18T10:27:57.844Z,97983.22
2023-04-18T10:30:42.315Z,97980.00
2023-04-18T10:33:30.456Z,97970.81
2023-04-18T10:36:08.804Z,97966.97
2023-04-18T10:38:44.960Z,97976.78
2023-04-18T10:41:15.132Z,97972.88
2023-04-18T10:44:08.425Z,97972.09
2023-04-18T10:46:50.889Z,97979.63
2023-04-18T10:49:26.813Z,97985.81
2023-04-18T10:51:58.820Z,97970.19
2023-04-18T10:54:51.021Z,97968.91
2023-04-18T10:57:17.913Z,97967.31
2023-04-18T10:59:49.013Z,97957.91
2023-04-18T11:02:23.313Z,97955.81
2023-04-18T11:04:51.732Z,97950.88
2023-04-18T11:07:18.471Z,97961.53
2023-04-18T11:09:55.025Z,97958.06
2023-04-18T11:12:21.556Z,97949.28
2023-04-18T11:14:52.076Z,97948.50
2023-04-18T11:17:24.157Z,97943.75
2023-04-18T11:19:59.074Z,97949.72
2023-04-18T11:22:26.056Z,97939.56
2023-04-18T11:24:53.147Z,97942.88
2023-04-18T11:27:25.204Z,97935.56
2023-04-18T11:29:55.149Z,97933.59
2023-04-18T11:32:23.566Z,97934.97
2023-04-18T11:34:54.546Z,97941.94
2023-04-18T11:37:21.756Z,97933.06
2023-04-18T11:39:48.307Z,97935.28
2023-04-18T11:42:15.052Z,97943.88
2023-04-18T11:44:45.841Z,97939.34
2023-04-18T11:47:29.695Z,97941.31
2023-04-18T11:50:07.266Z,97944.59
2023-04-18T11:52:35.592Z,97939.09
2023-04-18T11:55:19.570Z,97937.97
2023-04-18T11:57:59.800Z,97941.56
2023-04-18T12:00:38.655Z,97929.78
2023-04-18T12:03:09.060Z,97936.66
2023-04-18T12:05:38.510Z,97936.25
2023-04-18T12:08:20.188Z,97944.50
2023-04-18T12:10:54.365Z,97938.91
2023-04-18T12:13:28.348Z,97941.84
2023-04-18T12:15:54.989Z,97938.91
2023-04-18T12:18:23.383Z,97940.94
2023-04-18T12:20:54.043Z,97945.19
2023-04-18T12:23:42.557Z,97948.84
2023-04-18T12:26:14.517Z,97944.00
2023-04-18T12:28:45.110Z,97940.88
2023-04-18T12:31:11.788Z,97948.31
2023-04-18T12:33:38.387Z,97947.78
2023-04-18T12:36:11.227Z,97944.84
2023-04-18T12:38:37.805Z,97938.81
2023-04-18T12:41:05.575Z,97939.25
2023-04-18T12:43:32.455Z,97940.59
2023-04-18T12:45:59.635Z,97940.81
2023-04-18T12:48:26.166Z,97942.06
2023-04-18T12:50:52.739Z,97940.25
2023-04-18T12:53:19.267Z,97938.31
2023-04-18T12:55:46.305Z,97942.72
2023-04-18T12:58:18.523Z,97941.66
2023-04-18T13:00:45.159Z,97936.06
2023-04-18T13:03:13.396Z,97940.94
2023-04-18T13:05:40.346Z,97938.97
2023-04-18T13:08:16.047Z,97941.41
2023-04-18T13:10:44.788Z,97940.25
2023-04-18T13:13:11.379Z,97935.22
2023-04-18T13:15:38.288Z,97938.13
2023-04-18T13:18:06.636Z,97937.53
2023-04-18T13:20:34.445Z,97931.97
2023-04-18T13:23:02.780Z,97937.78
2023-04-18T13:25:29.455Z,97939.03
2023-04-18T13:27:58.524Z,97936.44
2023-04-18T13:30:25.461Z,97927.69
2023-04-18T13:32:52.072Z,97931.28
2023-04-18T13:35:18.729Z,97928.81
2023-04-18T13:37:46.268Z,97933.34
2023-04-18T13:40:13.312Z,97927.69
2023-04-18T13:42:39.907Z,97936.09
2023-04-18T13:45:09.944Z,97930.50
2023-04-18T13:47:37.150Z,97938.81
2023-04-18T13:50:04.103Z,97931.34
2023-04-18T13:52:30.648Z,97940.44
2023-04-18T13:54:57.179Z,97938.75
2023-04-18T13:57:26.091Z,97937.75
2023-04-18T13:59:52.706Z,97940.03
2023-04-18T14:02:19.421Z,97942.50
2023-04-18T14:04:46.605Z,97944.72
2023-04-18T14:07:13.251Z,97944.41
2023-04-18T14:09:39.806Z,97945.75
2023-04-18T14:12:07.118Z,97947.41
2023-04-18T14:14:33.697Z,97949.31
2023-04-18T14:17:00.378Z,97950.75
2023-04-18T14:19:27.425Z,97950.41
2023-04-18T14:21:53.953Z,97946.13
2023-04-18T14:24:20.601Z,97958.09
2023-04-18T14:26:48.111Z,97949.06
2023-04-18T14:29:15.002Z,97950.69
2023-04-18T14:31:41.949Z,97951.97
2023-04-18T14:34:09.887Z,97953.00
2023-04-18T14:36:36.998Z,97953.97
2023-04-18T14:39:03.950Z,97956.97
2023-04-18T14:41:30.554Z,97947.66
2023-04-18T14:43:57.082Z,97950.28
2023-04-18T14:46:23.627Z,97945.78
2023-04-18T14:48:50.278Z,97954.06
2023-04-18T14:51:17.063Z,97947.16
2023-04-18T14:53:44.562Z,97948.84
2023-04-18T14:56:11.449Z,97943.22
2023-04-18T14:58:38.157Z,97950.91
2023-04-18T15:01:05.188Z,97951.59
2023-04-18T15:03:32.325Z,97957.31
2023-04-18T15:05:59.100Z,97945.38
2023-04-18T15:08:25.701Z,97951.75
2023-04-18T15:10:52.226Z,97953.50
2023-04-18T15:13:20.924Z,97951.25
2023-04-18T15:15:55.156Z,97956.25
2023-04-18T15:18:22.055Z,97954.38
2023-04-18T15:20:48.654Z,97956.53
2023-04-18T15:23:16.022Z,97960.38
2023-04-18T15:25:44.591Z,97956.84
2023-04-18T15:28:14.656Z,97964.84
2023-04-18T15:30:41.174Z,97958.25
2023-04-18T15:33:08.247Z,97960.91
2023-04-18T15:35:34.895Z,97961.75
2023-04-18T15:38:01.621Z,97967.16
2023-04-18T15:40:28.125Z,97965.03
2023-04-18T15:42:56.138Z,97966.75
2023-04-18T15:45:22.701Z,97956.00
2023-04-18T15:47:49.292Z,97962.09
2023-04-18T15:50:16.402Z,97957.84
2023-04-18T15:52:46.214Z,97960.47
2023-04-18T15:55:13.498Z,97958.25
2023-04-18T15:57:41.889Z,97963.09
2023-04-18T16:00:15.975Z,97971.84
2023-04-18T16:02:44.485Z,97971.44
2023-04-18T16:05:12.545Z,97973.41
2023-04-18T16:07:43.029Z,97975.44
2023-04-18T16:10:11.232Z,97979.81
2023-04-18T16:12:38.736Z,97978.41
2023-04-18T16:15:07.014Z,97987.38
2023-04-18T16:17:33.598Z,97985.31
2023-04-18T16:20:00.240Z,97980.72
2023-04-18T16:22:26.893Z,97984.00
2023-04-18T16:24:53.444Z,97985.59
2023-04-18T16:27:19.977Z,97985.28
2023-04-18T16:29:47.326Z,97989.06
2023-04-18T16:32:13.932Z,97989.94
2023-04-18T16:34:40.469Z,97993.50
2023-04-18T16:37:06.978Z,97989.56
2023-04-18T16:39:33.677Z,97994.34
2023-04-18T16:42:00.183Z,97991.69
2023-04-18T16:44:26.735Z,97997.94
2023-04-18T16:46:53.335Z,97995.78
2023-04-18T16:49:20.608Z,97997.34
2023-04-18T16:51:47.188Z,98002.09
2023-04-18T16:54:13.939Z,98003.66
2023-04-18T16:56:41.480Z,98005.31
2023-04-18T16:59:09.471Z,98003.38
2023-04-18T17:01:36.334Z,98008.19
2023-04-18T17:04:02.999Z,97999.91
2023-04-18T17:06:31.280Z,98010.94
2023-04-18T17:08:58.820Z,98007.84
2023-04-18T17:11:25.568Z,98014.94
2023-04-18T17:13:52.165Z,98020.84
2023-04-18T17:16:18.777Z,98020.38
2023-04-18T17:18:45.327Z,98019.75
2023-04-18T17:21:12.692Z,98034.72
2023-04-18T17:23:42.680Z,98030.16
2023-04-18T17:26:10.133Z,98029.72
2023-04-18T17:28:36.723Z,98029.72
2023-04-18T17:31:03.876Z,98030.97
2023-04-18T17:33:31.265Z,98028.59
2023-04-18T17:35:58.327Z,98032.59
2023-04-18T17:38:24.963Z,98027.53
2023-04-18T17:41:01.292Z,98032.28
2023-04-18T17:43:28.085Z,98040.41
2023-04-18T17:47:08.613Z,98033.78
2023-04-18T17:49:36.128Z,98045.16
2023-04-18T17:52:03.570Z,98053.44
2023-04-18T17:54:30.368Z,98040.19
2023-04-18T17:56:57.802Z,98048.72
2023-04-18T17:59:24.366Z,98053.53
2023-04-18T18:01:51.033Z,98048.00
2023-04-18T18:04:17.858Z,98046.91
2023-04-18T18:06:57.208Z,98053.16
2023-04-18T18:09:24.084Z,98057.13
2023-04-18T18:11:50.584Z,98054.78
2023-04-18T18:14:17.107Z,98059.50
2023-04-18T18:16:43.720Z,98052.41
2023-04-18T18:19:10.391Z,98058.72
2023-04-18T18:21:37.134Z,98056.03
2023-04-18T18:24:03.883Z,98057.53
2023-04-18T18:26:30.970Z,98062.66
2023-04-18T18:28:57.518Z,98074.78
2023-04-18T18:31:25.163Z,98065.44
2023-04-18T18:33:52.183Z,98064.63
2023-04-18T18:36:18.703Z,98065.41
2023-04-18T18:38:45.382Z,98072.84
2023-04-18T18:41:11.878Z,98076.78
2023-04-18T18:43:38.407Z,98074.41
2023-04-18T18:46:04.938Z,98082.22
2023-04-18T18:48:32.875Z,98076.41
2023-04-18T18:50:59.438Z,98081.88
2023-04-18T18:53:28.739Z,98093.22
2023-04-18T18:55:55.615Z,98083.81
2023-04-18T18:58:22.133Z,98094.72
2023-04-18T19:00:48.726Z,98093.25
2023-04-18T19:03:18.455Z,98090.91
2023-04-18T19:05:47.912Z,98085.03
2023-04-18T19:08:14.607Z,98094.03
2023-04-18T19:10:41.651Z,98086.56
2023-04-18T19:13:08.194Z,98103.78
2023-04-18T19:15:34.890Z,98107.31
2023-04-18T19:18:01.735Z,98092.09
2023-04-18T19:20:29.229Z,98101.09
2023-04-18T19:22:55.900Z,98102.63
2023-04-18T19:25:22.624Z,98092.47
2023-04-18T19:27:49.166Z,98098.72
2023-04-18T19:30:15.809Z,98101.13
2023-04-18T19:32:42.452Z,98102.66
2023-04-18T19:35:11.974Z,98105.72
2023-04-18T19:37:38.601Z,98108.16
2023-04-18T19:40:06.952Z,98108.91
2023-04-18T19:42:33.539Z,98109.75
2023-04-18T19:45:00.440Z,98112.06
2023-04-18T19:47:28.147Z,98106.59
2023-04-18T19:49:54.650Z,98105.03
2023-04-18T19:52:21.183Z,98109.72
2023-04-18T19:54:47.729Z,98102.69
2023-04-18T19:57:14.252Z,98107.72
2023-04-18T19:59:40.806Z,98109.66
2023-04-18T20:02:07.346Z,98103.47
2023-04-18T20:04:34.377Z,98101.94
2023-04-18T20:07:02.521Z,98115.63
2023-04-18T20:09:29.131Z,98114.09
2023-04-18T20:11:55.679Z,98118.41
2023-04-18T20:14:22.298Z,98108.19
2023-04-18T20:16:49.844Z,98121.09
2023-04-18T20:19:17.838Z,98118.38
2023-04-18T20:21:44.567Z,98127.38
2023-04-18T20:24:11.113Z,98118.38
2023-04-18T20:26:37.635Z,98111.38
2023-04-18T20:29:04.355Z,98108.25
2023-04-18T20:31:30.842Z,98112.13
2023-04-18T20:33:57.346Z,98118.00
2023-04-18T20:36:24.526Z,98112.22
2023-04-18T20:38:51.078Z,98113.78
2023-04-18T20:41:24.230Z,98112.97
2023-04-18T20:43:53.792Z,98112.19
2023-04-18T20:46:20.585Z,98119.63
2023-04-18T20:48:47.103Z,98116.13
2023-04-18T20:51:13.632Z,98113.00
2023-04-18T20:53:40.330Z,98113.00
2023-04-18T20:56:07.018Z,98117.69
2023-04-18T20:58:33.529Z,98107.19
2023-04-18T21:01:00.066Z,98110.72
2023-04-18T21:03:26.828Z,98106.81
2023-04-18T21:05:56.137Z,98104.41
2023-04-18T21:08:22.659Z,98103.59
2023-04-18T21:10:49.272Z,98109.88
2023-04-18T21:13:15.824Z,98102.09
2023-04-18T21:15:42.842Z,98102.88
2023-04-18T21:18:09.528Z,98108.34
2023-04-18T21:20:36.942Z,98106.41
2023-04-18T21:23:03.662Z,98100.56
2023-04-18T21:25:30.217Z,98104.47
2023-04-18T21:27:56.817Z,98102.13
2023-04-18T21:30:23.459Z,98104.47
2023-04-18T21:32:51.616Z,98105.22
2023-04-18T21:35:20.192Z,98104.47
2023-04-18T21:37:47.941Z,98102.50
2023-04-18T21:40:14.773Z,98105.22
2023-04-18T21:42:41.431Z,98095.91
2023-04-18T21:45:08.585Z,98101.38
2023-04-18T21:47:35.163Z,98100.22
2023-04-18T21:50:01.756Z,98101.38
2023-04-18T21:52:28.280Z,98105.66
2023-04-18T21:54:54.791Z,98100.19
2023-04-18T21:57:21.629Z,98102.53
2023-04-18T21:59:48.285Z,98099.00
2023-04-18T22:02:14.928Z,98095.13
2023-04-18T22:04:42.914Z,98110.00
2023-04-18T22:07:09.929Z,98104.53
2023-04-18T22:09:36.574Z,98101.41
2023-04-18T22:12:04.417Z,98098.66
2023-04-18T22:14:34.155Z,98106.88
2023-04-18T22:17:04.916Z,98102.59
2023-04-18T22:19:31.548Z,98106.91
2023-04-18T22:21:58.447Z,98101.44
2023-04-18T22:24:26.096Z,98088.16
2023-04-18T22:26:53.093Z,98098.69
2023-04-18T22:29:19.693Z,98099.09
2023-04-18T22:31:46.290Z,98093.25
2023-04-18T22:34:13.043Z,98088.97
2023-04-18T22:36:39.748Z,98092.09
2023-04-18T22:39:06.539Z,98086.66
2023-04-18T22:41:33.059Z,98093.69
2023-04-18T22:43:59.580Z,98096.00
2023-04-18T22:46:27.443Z,98098.34
2023-04-18T22:48:54.370Z,98099.13
2023-04-18T22:51:20.912Z,98090.56
2023-04-18T22:53:47.398Z,98086.28
2023-04-18T22:56:13.951Z,98088.22
2023-04-18T22:58:40.600Z,98094.47
2023-04-18T23:01:07.335Z,98089.78
2023-04-18T23:03:34.745Z,98090.19
2023-04-18T23:06:01.593Z,98093.69
2023-04-18T23:08:28.392Z,98092.91
2023-04-18T23:10:54.931Z,98093.69
2023-04-18T23:13:21.588Z,98092.13
2023-04-18T23:15:48.210Z,98087.81
2023-04-18T23:18:17.884Z,98098.41
2023-04-18T23:20:44.390Z,98097.59
2023-04-18T23:23:10.913Z,98090.56
2023-04-18T23:25:37.495Z,98084.31
2023-04-18T23:28:04.205Z,98091.34
2023-04-18T23:30:30.800Z,98079.66
2023-04-18T23:32:57.350Z,98085.06
2023-04-18T23:35:24.496Z,98088.97
2023-04-18T23:37:51.044Z,98081.97
2023-04-18T23:40:17.577Z,98087.41
2023-04-18T23:42:44.494Z,98076.50
2023-04-18T23:45:11.478Z,98080.44
2023-04-18T23:47:38.000Z,98081.97
2023-04-18T23:50:05.308Z,98080.00
2023-04-18T23:52:31.833Z,98082.72
2023-04-18T23:55:01.753Z,98075.72
2023-04-18T23:57:28.288Z,98077.31
2023-04-18T23:59:54.826Z,98071.03
